Portada
METAR-TAF:

METAR-TAF

Aeropuertos :

Tenerife Sur, España

Aeropuerto de Tenerife Sur

latitud: 28-03N, longitud: 016-34W, altitud: 64 m

Observación

El informe se hizo hace 22 minutos, a las 10:30 UTC
Viento 21 kt del este
Temperatura 25°C
Humedad 57%
Presión 1016 hPa
Visibilidad 10 km o más
Escasas nubes a una altura de 3000 ft

METAR: GCTS 181030Z 08021KT 9999 FEW030 25/16 Q1016 NOSIG

Hora: 11:52 (10:52 UTC)

Pronóstico

El informe se hizo hace 2 horas y 52 minutos, a las 08:00 UTC
Pronóstico válido del 18 a las 09 UTC al 19 a las 09 UTC
Viento 8 kt del noreste
Visibilidad 10 km o más
Escasas nubes a una altura de 3500 ft
Evolucionando progresivamente
del 18 a las 09 UTC al 18 a las 11 UTC
Viento 23 kt del este
Temporalmente
del 18 a las 11 UTC al 18 a las 20 UTC
Viento 23 kt del este con ráfagas de 33 kt

TAF: GCTS 180800Z 1809/1909 04008KT 9999 FEW035 TX28/1814Z TN20/1905Z BECMG 1809/1811 08023KT TEMPO 1811/1820 08023G33KT

Observaciones y pronósticos meteorológicos de más de 4000 aeropuertos (mensajes METAR y TAF).

Los puntos amarillos y rojos representan las estaciones disponibles.

Ponga el ratón en el punto deseado para ver el nombre de la estación.

Haga clic para ver las observaciones y los pronósticos meteorológicos.

Para cambiar el mapa : haga clic en los botones verdes con una cruz de color negro para hacer un zoom, en el botón verde con un guión para alejar o en las flechas verdes para mapas adyacentes.


METAR-TAF: